sensor_id;sensor_type;location;lat;lon;timestamp;pressure;altitude;pressure_sealevel;temperature;humidity
63339;BME280;70568;51.378;-1.342;2023-07-20T00:01:30;100323.34;;;11.13;39.48
63339;BME280;70568;51.378;-1.342;2023-07-20T00:03:57;100320.11;;;12.90;38.62
63339;BME280;70568;51.378;-1.342;2023-07-20T00:06:25;100323.20;;;13.75;36.73
63339;BME280;70568;51.378;-1.342;2023-07-20T00:08:52;100324.07;;;13.66;35.45
63339;BME280;70568;51.378;-1.342;2023-07-20T00:11:19;100323.25;;;13.81;34.57
63339;BME280;70568;51.378;-1.342;2023-07-20T00:13:45;100318.90;;;14.72;34.04
63339;BME280;70568;51.378;-1.342;2023-07-20T00:16:12;100318.53;;;13.96;33.58
63339;BME280;70568;51.378;-1.342;2023-07-20T00:18:38;100319.93;;;15.00;33.45
63339;BME280;70568;51.378;-1.342;2023-07-20T00:21:05;100318.36;;;14.00;33.40
63339;BME280;70568;51.378;-1.342;2023-07-20T00:23:31;100315.08;;;13.33;33.11
63339;BME280;70568;51.378;-1.342;2023-07-20T00:25:58;100312.15;;;13.10;32.48
63339;BME280;70568;51.378;-1.342;2023-07-20T00:28:26;100313.84;;;15.52;30.57
63339;BME280;70568;51.378;-1.342;2023-07-20T00:30:52;100316.58;;;15.60;30.04
63339;BME280;70568;51.378;-1.342;2023-07-20T00:33:19;100315.66;;;15.63;29.75
63339;BME280;70568;51.378;-1.342;2023-07-20T00:35:45;100316.52;;;15.24;29.20
63339;BME280;70568;51.378;-1.342;2023-07-20T00:38:11;100314.93;;;16.10;29.73
63339;BME280;70568;51.378;-1.342;2023-07-20T00:40:38;100316.56;;;15.21;30.47
63339;BME280;70568;51.378;-1.342;2023-07-20T00:43:05;100318.30;;;15.17;31.79
63339;BME280;70568;51.378;-1.342;2023-07-20T00:45:33;100316.96;;;15.35;32.65
63339;BME280;70568;51.378;-1.342;2023-07-20T00:48:01;100315.69;;;14.32;32.54
63339;BME280;70568;51.378;-1.342;2023-07-20T00:50:29;100316.88;;;13.23;32.97
63339;BME280;70568;51.378;-1.342;2023-07-20T00:52:56;100312.19;;;13.90;32.73
63339;BME280;70568;51.378;-1.342;2023-07-20T00:55:24;100310.36;;;13.95;32.28
63339;BME280;70568;51.378;-1.342;2023-07-20T00:57:51;100311.36;;;13.71;31.49
63339;BME280;70568;51.378;-1.342;2023-07-20T01:00:17;100307.82;;;14.00;30.96
63339;BME280;70568;51.378;-1.342;2023-07-20T01:02:44;100306.29;;;14.56;30.88
63339;BME280;70568;51.378;-1.342;2023-07-20T01:05:11;100307.00;;;14.08;30.59
63339;BME280;70568;51.378;-1.342;2023-07-20T01:07:41;100308.02;;;15.00;30.95
63339;BME280;70568;51.378;-1.342;2023-07-20T01:10:13;100305.26;;;13.65;31.33
63339;BME280;70568;51.378;-1.342;2023-07-20T01:12:48;100303.38;;;14.42;31.69
63339;BME280;70568;51.378;-1.342;2023-07-20T01:15:16;100306.44;;;13.40;32.58
63339;BME280;70568;51.378;-1.342;2023-07-20T01:17:43;100306.84;;;13.09;32.62
63339;BME280;70568;51.378;-1.342;2023-07-20T01:20:13;100306.08;;;13.78;32.96
63339;BME280;70568;51.378;-1.342;2023-07-20T01:23:00;100304.40;;;13.97;33.30
63339;BME280;70568;51.378;-1.342;2023-07-20T01:25:40;100303.76;;;13.12;34.08
63339;BME280;70568;51.378;-1.342;2023-07-20T01:28:29;100306.74;;;13.74;34.39
63339;BME280;70568;51.378;-1.342;2023-07-20T01:31:17;100305.33;;;12.71;34.80
63339;BME280;70568;51.378;-1.342;2023-07-20T01:33:46;100306.26;;;12.43;34.99
63339;BME280;70568;51.378;-1.342;2023-07-20T01:36:13;100305.07;;;13.14;34.68
63339;BME280;70568;51.378;-1.342;2023-07-20T01:38:43;100304.63;;;12.86;34.36
63339;BME280;70568;51.378;-1.342;2023-07-20T01:41:11;100306.49;;;12.50;34.50
63339;BME280;70568;51.378;-1.342;2023-07-20T01:43:38;100303.63;;;13.60;33.92
63339;BME280;70568;51.378;-1.342;2023-07-20T01:46:05;100301.66;;;13.62;33.46
63339;BME280;70568;51.378;-1.342;2023-07-20T01:48:31;100299.76;;;12.95;32.82
63339;BME280;70568;51.378;-1.342;2023-07-20T01:50:59;100295.38;;;12.86;31.74
63339;BME280;70568;51.378;-1.342;2023-07-20T01:53:26;100294.76;;;13.34;31.47
63339;BME280;70568;51.378;-1.342;2023-07-20T01:55:53;100294.07;;;13.28;31.45
63339;BME280;70568;51.378;-1.342;2023-07-20T01:58:20;100294.58;;;13.69;31.89
63339;BME280;70568;51.378;-1.342;2023-07-20T02:00:47;100297.74;;;13.26;33.18
63339;BME280;70568;51.378;-1.342;2023-07-20T02:03:13;100293.33;;;13.65;33.88
63339;BME280;70568;51.378;-1.342;2023-07-20T02:05:42;100294.00;;;12.53;34.01
63339;BME280;70568;51.378;-1.342;2023-07-20T02:08:09;100293.46;;;12.32;33.76
63339;BME280;70568;51.378;-1.342;2023-07-20T02:10:36;100290.57;;;12.85;33.25
63339;BME280;70568;51.378;-1.342;2023-07-20T02:13:03;100290.66;;;13.15;32.82
63339;BME280;70568;51.378;-1.342;2023-07-20T02:15:31;100289.27;;;12.49;33.06
63339;BME280;70568;51.378;-1.342;2023-07-20T02:17:59;100288.47;;;13.51;32.74
63339;BME280;70568;51.378;-1.342;2023-07-20T02:20:25;100284.93;;;13.58;32.22
63339;BME280;70568;51.378;-1.342;2023-07-20T02:22:52;100285.57;;;14.08;32.13
63339;BME280;70568;51.378;-1.342;2023-07-20T02:25:18;100287.77;;;13.05;31.68
63339;BME280;70568;51.378;-1.342;2023-07-20T02:27:44;100287.44;;;13.57;31.61
63339;BME280;70568;51.378;-1.342;2023-07-20T02:30:11;100291.56;;;12.89;31.74
63339;BME280;70568;51.378;-1.342;2023-07-20T02:32:38;100291.68;;;13.51;31.67
63339;BME280;70568;51.378;-1.342;2023-07-20T02:35:06;100289.07;;;13.56;31.62
63339;BME280;70568;51.378;-1.342;2023-07-20T02:37:32;100286.28;;;14.13;32.27
63339;BME280;70568;51.378;-1.342;2023-07-20T02:40:00;100283.26;;;14.06;31.78
63339;BME280;70568;51.378;-1.342;2023-07-20T02:42:26;100281.03;;;12.49;31.96
63339;BME280;70568;51.378;-1.342;2023-07-20T02:44:53;100279.92;;;13.31;31.53
63339;BME280;70568;51.378;-1.342;2023-07-20T02:47:19;100279.05;;;13.04;31.68
63339;BME280;70568;51.378;-1.342;2023-07-20T02:49:46;100279.20;;;13.75;32.04
63339;BME280;70568;51.378;-1.342;2023-07-20T02:52:12;100277.96;;;13.91;31.48
63339;BME280;70568;51.378;-1.342;2023-07-20T02:54:39;100276.05;;;12.81;31.15
63339;BME280;70568;51.378;-1.342;2023-07-20T02:57:06;100276.85;;;13.86;30.91
63339;BME280;70568;51.378;-1.342;2023-07-20T02:59:32;100277.46;;;13.28;30.61
63339;BME280;70568;51.378;-1.342;2023-07-20T03:01:59;100276.97;;;13.11;30.23
63339;BME280;70568;51.378;-1.342;2023-07-20T03:04:26;100281.69;;;11.24;31.94
63339;BME280;70568;51.378;-1.342;2023-07-20T03:06:53;100278.46;;;12.46;30.64
63339;BME280;70568;51.378;-1.342;2023-07-20T03:09:20;100277.09;;;13.71;28.78
63339;BME280;70568;51.378;-1.342;2023-07-20T03:11:46;100276.95;;;14.93;28.62
63339;BME280;70568;51.378;-1.342;2023-07-20T03:14:13;100281.03;;;12.37;29.77
63339;BME280;70568;51.378;-1.342;2023-07-20T03:16:39;100280.75;;;13.50;28.02
63339;BME280;70568;51.378;-1.342;2023-07-20T03:19:06;100282.75;;;13.20;27.60
63339;BME280;70568;51.378;-1.342;2023-07-20T03:21:32;100283.76;;;14.56;27.74
63339;BME280;70568;51.378;-1.342;2023-07-20T03:23:59;100283.24;;;14.50;28.20
63339;BME280;70568;51.378;-1.342;2023-07-20T03:26:26;100284.51;;;14.59;28.93
63339;BME280;70568;51.378;-1.342;2023-07-20T03:28:52;100285.77;;;14.80;29.59
63339;BME280;70568;51.378;-1.342;2023-07-20T03:31:19;100284.09;;;13.59;30.07
63339;BME280;70568;51.378;-1.342;2023-07-20T03:33:45;100283.32;;;13.72;30.38
63339;BME280;70568;51.378;-1.342;2023-07-20T03:36:12;100287.33;;;14.50;30.58
63339;BME280;70568;51.378;-1.342;2023-07-20T03:38:39;100286.36;;;14.21;30.80
63339;BME280;70568;51.378;-1.342;2023-07-20T03:41:06;100285.52;;;12.47;30.98
63339;BME280;70568;51.378;-1.342;2023-07-20T03:43:33;100290.25;;;13.14;31.16
63339;BME280;70568;51.378;-1.342;2023-07-20T03:46:00;100286.65;;;12.62;31.53
63339;BME280;70568;51.378;-1.342;2023-07-20T03:48:27;100287.72;;;12.96;31.77
63339;BME280;70568;51.378;-1.342;2023-07-20T03:50:54;100288.36;;;13.78;32.08
63339;BME280;70568;51.378;-1.342;2023-07-20T03:53:21;100284.99;;;12.43;32.29
63339;BME280;70568;51.378;-1.342;2023-07-20T03:55:49;100281.39;;;12.01;31.94
63339;BME280;70568;51.378;-1.342;2023-07-20T03:58:17;100280.66;;;12.86;31.71
63339;BME280;70568;51.378;-1.342;2023-07-20T04:00:45;100279.88;;;12.58;30.95
63339;BME280;70568;51.378;-1.342;2023-07-20T04:03:13;100281.45;;;13.10;30.90
63339;BME280;70568;51.378;-1.342;2023-07-20T04:05:40;100284.40;;;11.92;31.08
63339;BME280;70568;51.378;-1.342;2023-07-20T04:08:07;100284.06;;;11.51;30.68
63339;BME280;70568;51.378;-1.342;2023-07-20T04:10:33;100285.84;;;13.40;29.32
63339;BME280;70568;51.378;-1.342;2023-07-20T04:13:00;100291.99;;;13.60;29.90
63339;BME280;70568;51.378;-1.342;2023-07-20T04:15:27;100285.99;;;12.80;29.72
63339;BME280;70568;51.378;-1.342;2023-07-20T04:17:55;100287.48;;;13.55;29.76
63339;BME280;70568;51.378;-1.342;2023-07-20T04:20:23;100287.71;;;13.03;30.27
63339;BME280;70568;51.378;-1.342;2023-07-20T04:22:50;100289.60;;;13.39;30.75
63339;BME280;70568;51.378;-1.342;2023-07-20T04:25:17;100288.15;;;12.99;31.57
63339;BME280;70568;51.378;-1.342;2023-07-20T04:27:44;100285.91;;;11.94;32.48
63339;BME280;70568;51.378;-1.342;2023-07-20T04:30:11;100282.27;;;13.04;32.91
63339;BME280;70568;51.378;-1.342;2023-07-20T04:32:39;100279.62;;;11.49;33.33
63339;BME280;70568;51.378;-1.342;2023-07-20T04:35:07;100282.50;;;11.76;33.63
63339;BME280;70568;51.378;-1.342;2023-07-20T04:37:34;100281.75;;;11.69;33.77
63339;BME280;70568;51.378;-1.342;2023-07-20T04:40:00;100282.50;;;11.92;34.42
63339;BME280;70568;51.378;-1.342;2023-07-20T04:42:27;100282.95;;;11.38;34.14
63339;BME280;70568;51.378;-1.342;2023-07-20T04:44:53;100283.89;;;9.49;34.03
63339;BME280;70568;51.378;-1.342;2023-07-20T04:47:20;100279.50;;;9.34;33.27
63339;BME280;70568;51.378;-1.342;2023-07-20T04:49:46;100279.44;;;10.47;32.05
63339;BME280;70568;51.378;-1.342;2023-07-20T04:52:13;100276.27;;;10.67;30.59
63339;BME280;70568;51.378;-1.342;2023-07-20T04:54:40;100275.96;;;13.38;29.83
63339;BME280;70568;51.378;-1.342;2023-07-20T04:57:11;100278.45;;;12.65;30.37
63339;BME280;70568;51.378;-1.342;2023-07-20T04:59:38;100275.47;;;11.88;30.54
63339;BME280;70568;51.378;-1.342;2023-07-20T05:02:05;100275.09;;;13.12;31.36
63339;BME280;70568;51.378;-1.342;2023-07-20T05:04:32;100273.13;;;12.16;31.71
63339;BME280;70568;51.378;-1.342;2023-07-20T05:06:59;100275.85;;;12.96;32.17
63339;BME280;70568;51.378;-1.342;2023-07-20T05:09:25;100277.49;;;11.25;32.31
63339;BME280;70568;51.378;-1.342;2023-07-20T05:11:52;100280.18;;;12.38;32.79
63339;BME280;70568;51.378;-1.342;2023-07-20T05:14:18;100280.31;;;11.14;33.35
63339;BME280;70568;51.378;-1.342;2023-07-20T05:16:45;100286.58;;;11.57;33.90
63339;BME280;70568;51.378;-1.342;2023-07-20T05:19:11;100289.43;;;11.41;34.63
63339;BME280;70568;51.378;-1.342;2023-07-20T05:21:38;100292.07;;;10.98;35.09
63339;BME280;70568;51.378;-1.342;2023-07-20T05:24:05;100294.31;;;10.65;35.39
63339;BME280;70568;51.378;-1.342;2023-07-20T05:26:32;100289.57;;;10.44;35.98
63339;BME280;70568;51.378;-1.342;2023-07-20T05:29:00;100291.06;;;10.33;37.16
63339;BME280;70568;51.378;-1.342;2023-07-20T05:31:26;100289.61;;;9.76;37.95
63339;BME280;70568;51.378;-1.342;2023-07-20T05:33:53;100289.39;;;9.81;37.80
63339;BME280;70568;51.378;-1.342;2023-07-20T05:36:19;100288.91;;;9.28;38.24
63339;BME280;70568;51.378;-1.342;2023-07-20T05:38:46;100293.79;;;10.11;38.51
63339;BME280;70568;51.378;-1.342;2023-07-20T05:41:12;100291.27;;;9.20;38.33
63339;BME280;70568;51.378;-1.342;2023-07-20T05:43:39;100294.78;;;9.01;38.00
63339;BME280;70568;51.378;-1.342;2023-07-20T05:46:05;100294.68;;;9.86;38.14
63339;BME280;70568;51.378;-1.342;2023-07-20T05:48:32;100291.24;;;10.67;36.87
63339;BME280;70568;51.378;-1.342;2023-07-20T05:50:59;100294.60;;;9.99;37.39
63339;BME280;70568;51.378;-1.342;2023-07-20T05:53:26;100290.17;;;10.50;38.05
63339;BME280;70568;51.378;-1.342;2023-07-20T05:55:53;100288.73;;;9.32;38.28
63339;BME280;70568;51.378;-1.342;2023-07-20T05:58:20;100283.05;;;10.94;37.90
63339;BME280;70568;51.378;-1.342;2023-07-20T06:00:48;100287.00;;;10.80;37.97
63339;BME280;70568;51.378;-1.342;2023-07-20T06:03:15;100288.45;;;10.43;38.29
63339;BME280;70568;51.378;-1.342;2023-07-20T06:05:42;100286.08;;;9.98;37.91
63339;BME280;70568;51.378;-1.342;2023-07-20T06:08:09;100284.70;;;10.12;36.84
63339;BME280;70568;51.378;-1.342;2023-07-20T06:10:35;100288.51;;;10.70;35.96
63339;BME280;70568;51.378;-1.342;2023-07-20T06:13:02;100284.66;;;10.89;35.14
63339;BME280;70568;51.378;-1.342;2023-07-20T06:15:31;100283.81;;;12.02;34.75
63339;BME280;70568;51.378;-1.342;2023-07-20T06:17:59;100282.03;;;12.00;35.30
63339;BME280;70568;51.378;-1.342;2023-07-20T06:20:26;100281.71;;;11.30;36.03
63339;BME280;70568;51.378;-1.342;2023-07-20T06:22:54;100282.38;;;11.57;36.61
63339;BME280;70568;51.378;-1.342;2023-07-20T06:25:20;100282.65;;;11.10;36.70
63339;BME280;70568;51.378;-1.342;2023-07-20T06:27:49;100284.64;;;11.30;35.82
63339;BME280;70568;51.378;-1.342;2023-07-20T06:30:15;100286.81;;;9.44;34.98
63339;BME280;70568;51.378;-1.342;2023-07-20T06:32:41;100282.62;;;10.96;34.82
63339;BME280;70568;51.378;-1.342;2023-07-20T06:35:08;100283.08;;;11.07;33.99
63339;BME280;70568;51.378;-1.342;2023-07-20T06:37:35;100286.74;;;9.79;34.71
63339;BME280;70568;51.378;-1.342;2023-07-20T06:40:02;100284.97;;;9.91;34.88
63339;BME280;70568;51.378;-1.342;2023-07-20T06:42:29;100286.74;;;9.77;35.00
63339;BME280;70568;51.378;-1.342;2023-07-20T06:44:56;100279.94;;;10.78;34.04
63339;BME280;70568;51.378;-1.342;2023-07-20T06:47:23;100281.48;;;12.99;33.01
63339;BME280;70568;51.378;-1.342;2023-07-20T06:49:50;100282.82;;;12.14;35.11
63339;BME280;70568;51.378;-1.342;2023-07-20T06:52:16;100281.69;;;12.37;35.12
63339;BME280;70568;51.378;-1.342;2023-07-20T06:54:43;100279.89;;;10.30;36.35
63339;BME280;70568;51.378;-1.342;2023-07-20T06:57:10;100281.68;;;11.02;35.41
63339;BME280;70568;51.378;-1.342;2023-07-20T06:59:36;100282.37;;;10.97;35.01
63339;BME280;70568;51.378;-1.342;2023-07-20T07:02:03;100286.76;;;6.71;38.62
63339;BME280;70568;51.378;-1.342;2023-07-20T07:04:31;100285.16;;;11.26;36.01
63339;BME280;70568;51.378;-1.342;2023-07-20T07:07:00;100286.44;;;12.57;33.89
63339;BME280;70568;51.378;-1.342;2023-07-20T07:09:26;100287.11;;;12.42;33.77
63339;BME280;70568;51.378;-1.342;2023-07-20T07:11:53;100287.69;;;11.57;34.80
63339;BME280;70568;51.378;-1.342;2023-07-20T07:14:20;100289.92;;;10.80;35.90
63339;BME280;70568;51.378;-1.342;2023-07-20T07:16:46;100286.73;;;9.39;35.63
63339;BME280;70568;51.378;-1.342;2023-07-20T07:19:13;100284.38;;;8.87;36.27
63339;BME280;70568;51.378;-1.342;2023-07-20T07:21:39;100283.23;;;9.28;35.12
63339;BME280;70568;51.378;-1.342;2023-07-20T07:24:06;100285.81;;;10.03;34.42
63339;BME280;70568;51.378;-1.342;2023-07-20T07:26:33;100285.52;;;9.69;35.96
63339;BME280;70568;51.378;-1.342;2023-07-20T07:29:00;100281.97;;;12.09;33.54
63339;BME280;70568;51.378;-1.342;2023-07-20T07:31:28;100282.80;;;10.06;33.39
63339;BME280;70568;51.378;-1.342;2023-07-20T07:33:55;100280.05;;;11.53;32.51
63339;BME280;70568;51.378;-1.342;2023-07-20T07:36:22;100278.61;;;11.62;31.03
63339;BME280;70568;51.378;-1.342;2023-07-20T07:38:49;100277.67;;;14.61;29.31
63339;BME280;70568;51.378;-1.342;2023-07-20T07:41:15;100279.88;;;13.60;30.80
63339;BME280;70568;51.378;-1.342;2023-07-20T07:43:42;100281.39;;;15.04;29.87
63339;BME280;70568;51.378;-1.342;2023-07-20T07:46:08;100276.59;;;14.55;29.64
63339;BME280;70568;51.378;-1.342;2023-07-20T07:48:35;100279.61;;;14.05;31.19
63339;BME280;70568;51.378;-1.342;2023-07-20T07:51:02;100276.63;;;13.06;31.04
63339;BME280;70568;51.378;-1.342;2023-07-20T07:53:29;100275.41;;;12.89;32.26
63339;BME280;70568;51.378;-1.342;2023-07-20T07:55:56;100273.92;;;14.13;30.54
63339;BME280;70568;51.378;-1.342;2023-07-20T07:58:22;100270.04;;;15.40;28.10
63339;BME280;70568;51.378;-1.342;2023-07-20T08:00:49;100266.55;;;11.70;29.89
63339;BME280;70568;51.378;-1.342;2023-07-20T08:03:15;100263.88;;;14.13;29.29
63339;BME280;70568;51.378;-1.342;2023-07-20T08:05:41;100261.50;;;15.44;27.24
63339;BME280;70568;51.378;-1.342;2023-07-20T08:08:08;100261.93;;;14.63;28.77
63339;BME280;70568;51.378;-1.342;2023-07-20T08:10:34;100260.21;;;14.70;28.55
63339;BME280;70568;51.378;-1.342;2023-07-20T08:13:01;100267.13;;;10.69;28.38
63339;BME280;70568;51.378;-1.342;2023-07-20T08:15:27;100265.63;;;14.62;27.21
63339;BME280;70568;51.378;-1.342;2023-07-20T08:17:54;100266.94;;;14.47;27.54
63339;BME280;70568;51.378;-1.342;2023-07-20T08:20:21;100264.24;;;13.84;28.61
63339;BME280;70568;51.378;-1.342;2023-07-20T08:22:47;100265.48;;;12.82;28.10
63339;BME280;70568;51.378;-1.342;2023-07-20T08:25:13;100263.73;;;13.71;26.62
63339;BME280;70568;51.378;-1.342;2023-07-20T08:27:40;100260.13;;;14.08;27.99
63339;BME280;70568;51.378;-1.342;2023-07-20T08:30:07;100256.84;;;15.85;26.17
63339;BME280;70568;51.378;-1.342;2023-07-20T08:32:34;100257.98;;;14.44;26.72
63339;BME280;70568;51.378;-1.342;2023-07-20T08:35:01;100255.83;;;13.34;27.92
63339;BME280;70568;51.378;-1.342;2023-07-20T08:37:27;100253.85;;;12.84;27.64
63339;BME280;70568;51.378;-1.342;2023-07-20T08:39:55;100257.80;;;13.16;26.27
63339;BME280;70568;51.378;-1.342;2023-07-20T08:42:22;100254.58;;;14.68;26.93
63339;BME280;70568;51.378;-1.342;2023-07-20T08:44:50;100257.45;;;14.97;25.15
63339;BME280;70568;51.378;-1.342;2023-07-20T08:47:20;100254.60;;;13.82;26.42
63339;BME280;70568;51.378;-1.342;2023-07-20T08:49:48;100256.53;;;15.92;24.50
63339;BME280;70568;51.378;-1.342;2023-07-20T08:52:16;100256.37;;;16.42;24.74
63339;BME280;70568;51.378;-1.342;2023-07-20T08:54:43;100253.20;;;15.79;26.56
63339;BME280;70568;51.378;-1.342;2023-07-20T08:57:11;100255.63;;;14.09;27.09
63339;BME280;70568;51.378;-1.342;2023-07-20T08:59:40;100252.37;;;14.59;26.63
63339;BME280;70568;51.378;-1.342;2023-07-20T09:02:08;100251.02;;;16.39;26.09
63339;BME280;70568;51.378;-1.342;2023-07-20T09:04:40;100248.75;;;14.61;27.13
63339;BME280;70568;51.378;-1.342;2023-07-20T09:07:06;100244.43;;;15.52;26.84
63339;BME280;70568;51.378;-1.342;2023-07-20T09:09:39;100244.99;;;14.19;27.54
63339;BME280;70568;51.378;-1.342;2023-07-20T09:12:13;100246.40;;;13.33;29.20
63339;BME280;70568;51.378;-1.342;2023-07-20T09:14:39;100240.35;;;14.61;26.08
63339;BME280;70568;51.378;-1.342;2023-07-20T09:17:12;100246.14;;;14.19;26.68
63339;BME280;70568;51.378;-1.342;2023-07-20T09:19:39;100241.19;;;15.31;26.24
63339;BME280;70568;51.378;-1.342;2023-07-20T09:22:11;100239.94;;;14.22;26.33
63339;BME280;70568;51.378;-1.342;2023-07-20T09:24:38;100238.17;;;14.39;27.10
63339;BME280;70568;51.378;-1.342;2023-07-20T09:27:06;100239.00;;;15.74;25.14
63339;BME280;70568;51.378;-1.342;2023-07-20T09:29:32;100233.33;;;15.49;24.89
63339;BME280;70568;51.378;-1.342;2023-07-20T09:32:00;100234.37;;;15.33;23.90
63339;BME280;70568;51.378;-1.342;2023-07-20T09:34:28;100232.73;;;16.37;23.02
63339;BME280;70568;51.378;-1.342;2023-07-20T09:36:55;100232.59;;;14.38;24.69
63339;BME280;70568;51.378;-1.342;2023-07-20T09:39:22;100224.85;;;16.41;23.38
63339;BME280;70568;51.378;-1.342;2023-07-20T09:41:49;100225.64;;;14.22;23.89
63339;BME280;70568;51.378;-1.342;2023-07-20T09:44:17;100222.22;;;14.48;24.07
63339;BME280;70568;51.378;-1.342;2023-07-20T09:46:45;100219.22;;;17.10;21.50
63339;BME280;70568;51.378;-1.342;2023-07-20T09:49:14;100225.87;;;13.82;24.20
63339;BME280;70568;51.378;-1.342;2023-07-20T09:51:41;100224.62;;;16.61;23.07
63339;BME280;70568;51.378;-1.342;2023-07-20T09:54:08;100223.20;;;15.57;24.75
63339;BME280;70568;51.378;-1.342;2023-07-20T09:56:35;100221.37;;;16.63;23.31
63339;BME280;70568;51.378;-1.342;2023-07-20T09:59:03;100217.01;;;16.77;22.23
63339;BME280;70568;51.378;-1.342;2023-07-20T10:01:30;100221.44;;;14.76;22.74
63339;BME280;70568;51.378;-1.342;2023-07-20T10:03:59;100217.51;;;15.84;22.85
63339;BME280;70568;51.378;-1.342;2023-07-20T10:06:29;100216.28;;;18.69;22.36
63339;BME280;70568;51.378;-1.342;2023-07-20T10:09:02;100214.31;;;16.52;22.56
63339;BME280;70568;51.378;-1.342;2023-07-20T10:11:30;100210.03;;;17.22;21.53
63339;BME280;70568;51.378;-1.342;2023-07-20T10:14:00;100213.74;;;18.15;22.88
63339;BME280;70568;51.378;-1.342;2023-07-20T10:16:32;100216.02;;;16.18;24.21
63339;BME280;70568;51.378;-1.342;2023-07-20T10:19:05;100217.95;;;16.80;25.64
63339;BME280;70568;51.378;-1.342;2023-07-20T10:21:33;100220.00;;;16.11;25.52
63339;BME280;70568;51.378;-1.342;2023-07-20T10:24:01;100218.84;;;15.65;24.51
63339;BME280;70568;51.378;-1.342;2023-07-20T10:26:29;100213.55;;;16.16;25.33
63339;BME280;70568;51.378;-1.342;2023-07-20T10:28:56;100206.43;;;15.84;23.87
63339;BME280;70568;51.378;-1.342;2023-07-20T10:31:25;100207.03;;;15.99;24.23
63339;BME280;70568;51.378;-1.342;2023-07-20T10:33:52;100205.57;;;14.95;25.17
63339;BME280;70568;51.378;-1.342;2023-07-20T10:36:24;100207.84;;;14.42;23.59
63339;BME280;70568;51.378;-1.342;2023-07-20T10:38:53;100208.61;;;16.32;23.21
63339;BME280;70568;51.378;-1.342;2023-07-20T10:41:23;100206.50;;;16.34;23.36
63339;BME280;70568;51.378;-1.342;2023-07-20T10:43:58;100207.02;;;13.23;24.03
63339;BME280;70568;51.378;-1.342;2023-07-20T10:46:34;100208.71;;;16.89;22.22
63339;BME280;70568;51.378;-1.342;2023-07-20T10:49:02;100207.24;;;16.15;23.18
63339;BME280;70568;51.378;-1.342;2023-07-20T10:51:31;100208.77;;;17.17;22.73
63339;BME280;70568;51.378;-1.342;2023-07-20T10:54:07;100204.84;;;16.83;23.95
63339;BME280;70568;51.378;-1.342;2023-07-20T10:56:34;100202.19;;;16.81;24.20
63339;BME280;70568;51.378;-1.342;2023-07-20T10:59:01;100198.79;;;14.39;23.59
63339;BME280;70568;51.378;-1.342;2023-07-20T11:01:44;100193.70;;;17.51;22.06
63339;BME280;70568;51.378;-1.342;2023-07-20T11:04:11;100190.76;;;17.95;22.23
63339;BME280;70568;51.378;-1.342;2023-07-20T11:06:37;100191.34;;;17.75;22.86
63339;BME280;70568;51.378;-1.342;2023-07-20T11:09:07;100188.87;;;16.72;22.73
63339;BME280;70568;51.378;-1.342;2023-07-20T11:11:35;100189.78;;;16.77;23.54
63339;BME280;70568;51.378;-1.342;2023-07-20T11:14:04;100188.04;;;16.04;24.20
63339;BME280;70568;51.378;-1.342;2023-07-20T11:16:34;100188.44;;;16.14;23.86
63339;BME280;70568;51.378;-1.342;2023-07-20T11:19:02;100191.13;;;16.78;21.84
63339;BME280;70568;51.378;-1.342;2023-07-20T11:21:35;100186.72;;;15.82;23.63
63339;BME280;70568;51.378;-1.342;2023-07-20T11:24:03;100177.98;;;18.54;21.87
63339;BME280;70568;51.378;-1.342;2023-07-20T11:26:30;100187.00;;;15.07;25.13
63339;BME280;70568;51.378;-1.342;2023-07-20T11:28:58;100181.94;;;15.82;25.12
63339;BME280;70568;51.378;-1.342;2023-07-20T11:31:25;100182.05;;;17.21;22.66
63339;BME280;70568;51.378;-1.342;2023-07-20T11:33:52;100179.08;;;17.64;22.50
63339;BME280;70568;51.378;-1.342;2023-07-20T11:36:18;100177.17;;;16.78;22.73
63339;BME280;70568;51.378;-1.342;2023-07-20T11:38:46;100172.57;;;16.82;22.61
63339;BME280;70568;51.378;-1.342;2023-07-20T11:41:13;100164.33;;;17.40;21.31
63339;BME280;70568;51.378;-1.342;2023-07-20T11:43:41;100159.27;;;16.23;21.43
63339;BME280;70568;51.378;-1.342;2023-07-20T11:46:07;100159.40;;;18.43;20.52
63339;BME280;70568;51.378;-1.342;2023-07-20T11:48:34;100158.52;;;17.46;21.04
63339;BME280;70568;51.378;-1.342;2023-07-20T11:51:01;100162.62;;;16.80;21.43
63339;BME280;70568;51.378;-1.342;2023-07-20T11:53:28;100165.53;;;16.24;22.66
63339;BME280;70568;51.378;-1.342;2023-07-20T11:55:55;100164.40;;;16.70;21.73
63339;BME280;70568;51.378;-1.342;2023-07-20T11:58:23;100164.32;;;16.52;22.30
63339;BME280;70568;51.378;-1.342;2023-07-20T12:00:50;100161.28;;;15.95;22.36
63339;BME280;70568;51.378;-1.342;2023-07-20T12:03:18;100157.43;;;16.74;21.29
63339;BME280;70568;51.378;-1.342;2023-07-20T12:05:44;100158.04;;;17.12;21.69
63339;BME280;70568;51.378;-1.342;2023-07-20T12:08:11;100152.16;;;17.03;20.90
63339;BME280;70568;51.378;-1.342;2023-07-20T12:10:40;100155.91;;;18.28;20.96
63339;BME280;70568;51.378;-1.342;2023-07-20T12:13:09;100155.44;;;16.95;22.80
63339;BME280;70568;51.378;-1.342;2023-07-20T12:15:37;100152.85;;;16.77;20.80
63339;BME280;70568;51.378;-1.342;2023-07-20T12:18:04;100148.30;;;16.48;21.01
63339;BME280;70568;51.378;-1.342;2023-07-20T12:20:32;100140.03;;;15.17;20.80
63339;BME280;70568;51.378;-1.342;2023-07-20T12:23:01;100137.01;;;16.31;20.08
63339;BME280;70568;51.378;-1.342;2023-07-20T12:25:45;100132.25;;;16.87;20.23
63339;BME280;70568;51.378;-1.342;2023-07-20T12:28:12;100127.24;;;18.96;20.18
63339;BME280;70568;51.378;-1.342;2023-07-20T12:30:40;100127.20;;;19.59;21.10
63339;BME280;70568;51.378;-1.342;2023-07-20T12:33:08;100129.61;;;15.02;23.71
63339;BME280;70568;51.378;-1.342;2023-07-20T12:35:35;100130.05;;;16.46;22.79
63339;BME280;70568;51.378;-1.342;2023-07-20T12:38:01;100132.92;;;14.71;23.79
63339;BME280;70568;51.378;-1.342;2023-07-20T12:40:29;100123.23;;;17.76;22.26
63339;BME280;70568;51.378;-1.342;2023-07-20T12:42:57;100123.12;;;16.84;21.93